Time;durP1;ratioP1;P1;durP2;ratioP2;P2;SDS_P1;SDS_P2;PMS_P1;PMS_P2;Temp;Humidity;BMP_temperature;BMP_pressure;BME280_temperature;BME280_humidity;BME280_pressure;Samples;Min_cycle;Max_cycle;Signal;HPM_P1;HPM_P2
2023/10/12 00:00:24;;;;;;;7.27;6.67;;;20.80;74.90;;;;;;5048402;28;20473;-69
2023/10/12 00:02:50;;;;;;;10.10;7.50;;;20.90;74.70;;;;;;5046795;28;20479;-69
2023/10/12 00:05:20;;;;;;;7.73;6.40;;;21.00;74.00;;;;;;5039092;28;20461;-69
2023/10/12 00:07:49;;;;;;;8.80;6.33;;;21.00;73.80;;;;;;5044585;28;20473;-69
2023/10/12 00:10:21;;;;;;;7.53;6.80;;;21.00;73.50;;;;;;5045633;28;20466;-70
2023/10/12 00:12:54;;;;;;;8.00;7.20;;;20.90;73.40;;;;;;5051437;28;20486;-69
2023/10/12 00:15:38;;;;;;;12.10;7.70;;;20.60;73.90;;;;;;5053638;28;20462;-69
2023/10/12 00:18:09;;;;;;;7.53;6.73;;;20.60;74.10;;;;;;5045015;28;20458;-69
2023/10/12 00:20:38;;;;;;;9.07;6.67;;;20.70;74.40;;;;;;5035319;28;20528;-69
2023/10/12 00:23:10;;;;;;;6.80;6.20;;;20.70;74.60;;;;;;5046019;28;20537;-69
2023/10/12 00:25:45;;;;;;;7.33;6.50;;;20.60;73.90;;;;;;5047444;28;20558;-69
2023/10/12 00:28:17;;;;;;;10.53;6.60;;;20.50;74.40;;;;;;5049381;28;20465;-69
2023/10/12 00:30:47;;;;;;;6.97;5.90;;;20.50;74.80;;;;;;5047003;28;20466;-70
2023/10/12 00:33:18;;;;;;;10.27;6.80;;;20.50;74.30;;;;;;5046982;28;20457;-69
2023/10/12 00:35:53;;;;;;;6.53;5.93;;;20.50;74.50;;;;;;5032489;28;20463;-69
2023/10/12 00:38:29;;;;;;;8.60;6.77;;;20.70;74.50;;;;;;5040576;28;20548;-69
2023/10/12 00:41:03;;;;;;;10.23;6.50;;;20.70;74.00;;;;;;5039459;28;20502;-70
2023/10/12 00:43:35;;;;;;;7.10;6.40;;;20.60;74.10;;;;;;5046060;28;20475;-69
2023/10/12 00:46:16;;;;;;;7.73;6.93;;;20.40;74.50;;;;;;5044948;28;20696;-69
2023/10/12 00:48:49;;;;;;;7.40;6.60;;;20.40;75.00;;;;;;5045985;28;20468;-69
2023/10/12 00:51:18;;;;;;;5.20;4.80;;;20.30;75.20;;;;;;5034095;28;21042;-69
2023/10/12 00:53:55;;;;;;;11.27;6.50;;;20.40;74.70;;;;;;5044285;28;20459;-69
2023/10/12 00:56:25;;;;;;;9.70;6.57;;;20.40;74.10;;;;;;5043245;28;20524;-69
2023/10/12 00:58:55;;;;;;;7.37;6.67;;;20.40;74.30;;;;;;5039986;28;20896;-69
2023/10/12 01:01:24;;;;;;;11.20;7.50;;;20.30;73.90;;;;;;5038003;28;21218;-69
2023/10/12 01:03:55;;;;;;;7.97;7.17;;;20.10;74.80;;;;;;5046242;28;20875;-69
2023/10/12 01:06:28;;;;;;;9.67;6.37;;;20.10;74.50;;;;;;5049338;28;20682;-69
2023/10/12 01:09:04;;;;;;;9.10;7.80;;;20.10;74.80;;;;;;5031774;28;20537;-69
2023/10/12 01:11:36;;;;;;;8.83;5.80;;;20.20;74.70;;;;;;5045555;28;20451;-69
2023/10/12 01:14:09;;;;;;;6.60;6.00;;;20.30;75.00;;;;;;5044452;28;20459;-69
2023/10/12 01:16:45;;;;;;;7.00;6.10;;;20.30;74.60;;;;;;5047256;28;21007;-69
2023/10/12 01:19:22;;;;;;;7.97;7.07;;;20.50;74.10;;;;;;5072437;28;20465;-69
2023/10/12 01:21:54;;;;;;;7.53;6.77;;;20.50;74.10;;;;;;5046816;28;20503;-69
2023/10/12 01:24:30;;;;;;;7.10;5.70;;;20.60;74.00;;;;;;5049887;28;20459;-70
2023/10/12 01:27:00;;;;;;;8.80;6.13;;;20.70;73.80;;;;;;5044711;28;20477;-69
2023/10/12 01:29:31;;;;;;;6.97;6.27;;;20.80;72.70;;;;;;5044375;28;20568;-69
2023/10/12 01:32:21;;;;;;;7.50;6.70;;;20.80;73.50;;;;;;5040940;28;20481;-69
2023/10/12 01:34:52;;;;;;;7.40;6.70;;;20.90;73.40;;;;;;5049709;28;20472;-70
2023/10/12 01:37:24;;;;;;;9.57;8.60;;;20.90;73.20;;;;;;5036535;28;20465;-69
2023/10/12 01:39:58;;;;;;;15.60;11.83;;;20.90;73.50;;;;;;5048141;28;20503;-69
2023/10/12 01:42:42;;;;;;;12.50;10.60;;;20.90;73.10;;;;;;5047292;28;20489;-69
2023/10/12 01:45:18;;;;;;;11.00;9.93;;;21.00;73.20;;;;;;5046137;28;20464;-69
2023/10/12 01:47:51;;;;;;;10.80;9.80;;;21.00;73.00;;;;;;5050270;28;20506;-69
2023/10/12 01:50:20;;;;;;;9.67;7.90;;;21.00;72.80;;;;;;5044470;28;20462;-70
2023/10/12 01:52:52;;;;;;;9.17;8.27;;;21.00;73.00;;;;;;5035579;28;20500;-69
2023/10/12 01:55:28;;;;;;;11.03;9.03;;;21.00;73.20;;;;;;5036583;28;20470;-69
2023/10/12 01:57:57;;;;;;;12.50;7.27;;;21.00;73.00;;;;;;5051528;28;21116;-69
2023/10/12 02:00:31;;;;;;;7.70;6.87;;;20.90;73.50;;;;;;5042582;28;20520;-69
2023/10/12 02:03:12;;;;;;;8.80;7.03;;;20.90;73.30;;;;;;5046941;28;20461;-69
2023/10/12 02:05:50;;;;;;;6.43;5.63;;;20.90;73.10;;;;;;5046955;28;21025;-69
2023/10/12 02:08:23;;;;;;;6.83;5.40;;;20.90;72.90;;;;;;5045064;28;20543;-69
2023/10/12 02:10:58;;;;;;;6.67;6.00;;;20.90;73.30;;;;;;5045881;28;20469;-69
2023/10/12 02:13:32;;;;;;;9.70;6.50;;;20.80;73.00;;;;;;5052543;28;20486;-69
2023/10/12 02:16:01;;;;;;;9.30;6.73;;;20.70;73.60;;;;;;5049314;28;20460;-69
2023/10/12 02:18:32;;;;;;;6.70;5.33;;;20.50;73.80;;;;;;5050938;28;20453;-69
2023/10/12 02:21:09;;;;;;;6.63;6.03;;;20.50;73.80;;;;;;5042434;28;20476;-69
2023/10/12 02:23:54;;;;;;;8.87;6.43;;;20.50;74.20;;;;;;5045917;28;20466;-69
2023/10/12 02:26:35;;;;;;;6.93;6.03;;;20.50;74.10;;;;;;5045638;28;20472;-69
2023/10/12 02:29:18;;;;;;;9.20;6.40;;;20.50;74.00;;;;;;5040108;28;20476;-69
2023/10/12 02:31:55;;;;;;;6.43;5.40;;;20.40;73.70;;;;;;5050460;28;20454;-69
2023/10/12 02:34:26;;;;;;;7.63;5.80;;;20.30;74.40;;;;;;5051484;28;20469;-69
2023/10/12 02:37:16;;;;;;;10.13;6.80;;;20.40;74.30;;;;;;5048597;28;20461;-69
2023/10/12 02:39:48;;;;;;;7.20;6.00;;;20.40;74.00;;;;;;5047811;28;20472;-69
2023/10/12 02:42:18;;;;;;;7.50;6.03;;;20.30;74.10;;;;;;5059013;28;20480;-69
2023/10/12 02:45:08;;;;;;;7.17;6.47;;;20.20;74.20;;;;;;5050551;28;20456;-69
2023/10/12 02:47:40;;;;;;;6.20;5.27;;;20.20;73.80;;;;;;5051487;28;20539;-69
2023/10/12 02:50:20;;;;;;;6.93;5.33;;;20.10;74.10;;;;;;5038948;28;20458;-69
2023/10/12 02:52:51;;;;;;;9.23;6.47;;;20.10;74.20;;;;;;5044921;28;20493;-69
2023/10/12 02:55:40;;;;;;;8.53;6.00;;;20.10;73.90;;;;;;5040258;28;20481;-69
2023/10/12 02:58:19;;;;;;;9.10;6.13;;;20.10;73.70;;;;;;5048691;28;20456;-69
2023/10/12 03:00:54;;;;;;;8.70;6.60;;;20.20;73.60;;;;;;5071026;28;20457;-69
2023/10/12 03:03:27;;;;;;;7.40;5.93;;;20.30;73.20;;;;;;5065422;28;20487;-69
2023/10/12 03:06:07;;;;;;;7.20;6.50;;;20.20;73.40;;;;;;5051713;28;20456;-69
2023/10/12 03:09:00;;;;;;;5.63;5.13;;;20.30;73.70;;;;;;5052783;28;20460;-69
2023/10/12 03:11:31;;;;;;;8.53;6.57;;;20.30;73.30;;;;;;5051177;28;20951;-69
2023/10/12 03:14:04;;;;;;;9.13;5.90;;;20.20;73.30;;;;;;5041827;28;20558;-69
2023/10/12 03:16:34;;;;;;;9.83;5.47;;;20.20;73.60;;;;;;5047727;28;20521;-69
2023/10/12 03:19:17;;;;;;;5.40;4.90;;;20.10;73.60;;;;;;5042094;28;20469;-69
2023/10/12 03:21:47;;;;;;;6.70;5.10;;;20.00;73.90;;;;;;5041142;28;20479;-69
2023/10/12 03:24:16;;;;;;;10.03;6.30;;;20.00;73.80;;;;;;5042594;28;20571;-69
2023/10/12 03:26:56;;;;;;;8.10;7.30;;;20.00;73.20;;;;;;5043461;28;20575;-69
2023/10/12 03:29:26;;;;;;;9.83;8.87;;;20.00;74.00;;;;;;5051076;28;20459;-69
2023/10/12 03:31:56;;;;;;;8.63;7.10;;;20.20;74.10;;;;;;5048286;28;20464;-69
2023/10/12 03:34:35;;;;;;;7.80;7.00;;;20.30;74.20;;;;;;5054735;28;20466;-69
2023/10/12 03:37:13;;;;;;;9.20;6.60;;;20.40;74.10;;;;;;5048202;28;20833;-69
2023/10/12 03:39:58;;;;;;;8.17;7.17;;;20.50;73.60;;;;;;5044885;28;20462;-69
2023/10/12 03:42:42;;;;;;;9.67;6.57;;;20.70;73.10;;;;;;5046758;28;20481;-69
2023/10/12 03:45:24;;;;;;;9.00;6.30;;;20.80;73.00;;;;;;5042581;28;20460;-69
2023/10/12 03:48:04;;;;;;;9.07;7.60;;;20.70;72.80;;;;;;5043953;28;20461;-69
2023/10/12 03:50:51;;;;;;;9.80;8.83;;;20.80;72.90;;;;;;5032857;28;20519;-69
2023/10/12 03:53:26;;;;;;;13.93;12.57;;;20.80;73.10;;;;;;5034056;28;20469;-68
2023/10/12 03:55:58;;;;;;;11.63;9.70;;;20.90;72.80;;;;;;5037206;28;20464;-69
2023/10/12 03:58:28;;;;;;;12.27;10.00;;;20.90;72.80;;;;;;5068843;28;20456;-69
2023/10/12 04:01:12;;;;;;;15.23;11.40;;;20.90;72.60;;;;;;5057249;28;20474;-69
2023/10/12 04:03:44;;;;;;;10.13;8.63;;;20.90;72.80;;;;;;5032818;28;20466;-69
2023/10/12 04:06:23;;;;;;;11.60;10.27;;;21.00;73.00;;;;;;5048038;28;21003;-68
2023/10/12 04:08:54;;;;;;;11.40;10.23;;;21.00;72.80;;;;;;5045565;28;20469;-68
2023/10/12 04:14:43;;;;;;;17.60;16.07;;;20.90;73.00;;;;;;5036284;28;20474;-69
2023/10/12 04:17:22;;;;;;;23.60;21.43;;;20.70;72.90;;;;;;5044301;28;20465;-69
2023/10/12 04:20:13;;;;;;;22.93;20.33;;;20.60;73.50;;;;;;5045709;28;20517;-70
2023/10/12 04:23:13;;;;;;;20.33;16.37;;;20.40;73.80;;;;;;5047184;28;20470;-69
2023/10/12 04:25:33;;;;;;;13.67;12.20;;;20.20;74.30;;;;;;5046414;28;20459;-69
2023/10/12 04:28:16;;;;;;;7.47;6.77;;;20.10;74.70;;;;;;5044182;28;20467;-69
2023/10/12 04:33:43;;;;;;;16.23;13.53;;;20.20;74.60;;;;;;5031196;28;20474;-69
2023/10/12 04:36:14;;;;;;;13.23;10.30;;;20.20;74.60;;;;;;5047601;28;20867;-70
2023/10/12 04:38:57;;;;;;;11.60;8.20;;;20.30;74.60;;;;;;5035665;28;20484;-70
2023/10/12 04:41:37;;;;;;;6.20;5.60;;;20.40;74.30;;;;;;5038220;28;20595;-70
2023/10/12 04:46:58;;;;;;;7.60;6.80;;;20.50;73.80;;;;;;5046800;28;20461;-71
2023/10/12 04:52:32;;;;;;;9.90;6.83;;;20.70;73.80;;;;;;5019876;28;20544;-70
2023/10/12 04:57:48;;;;;;;9.23;8.33;;;20.80;73.60;;;;;;5049281;28;20475;-70
2023/10/12 05:00:24;;;;;;;13.80;11.70;;;20.90;73.40;;;;;;5036726;28;20895;-70
2023/10/12 05:03:22;;;;;;;14.60;12.73;;;20.90;73.20;;;;;;5045281;28;20477;-70
2023/10/12 05:06:04;;;;;;;14.77;13.30;;;20.80;73.40;;;;;;5045377;28;20858;-69
2023/10/12 05:08:34;;;;;;;13.87;12.40;;;20.60;73.60;;;;;;5047945;28;20461;-69
2023/10/12 05:11:02;;;;;;;13.87;12.50;;;20.50;74.20;;;;;;5045599;28;20462;-70
2023/10/12 05:13:31;;;;;;;13.73;11.00;;;20.30;74.30;;;;;;5040259;28;21897;-71
2023/10/12 05:16:06;;;;;;;14.23;12.73;;;20.20;74.80;;;;;;5049403;28;20460;-72
2023/10/12 05:18:37;;;;;;;12.47;10.57;;;20.10;75.00;;;;;;5040674;28;20989;-70
2023/10/12 05:21:08;;;;;;;11.33;10.13;;;20.10;74.90;;;;;;5043558;28;20492;-71
2023/10/12 05:23:38;;;;;;;10.60;8.77;;;20.00;75.10;;;;;;5050091;28;21061;-71
2023/10/12 05:26:09;;;;;;;9.33;7.97;;;20.00;75.60;;;;;;5044311;28;20516;-70
2023/10/12 05:28:47;;;;;;;11.10;7.83;;;20.10;75.20;;;;;;5041989;28;20652;-70
2023/10/12 05:31:20;;;;;;;9.47;7.10;;;20.10;75.00;;;;;;5039958;28;20461;-70
2023/10/12 05:36:45;;;;;;;8.77;6.73;;;20.50;74.50;;;;;;5050217;28;20554;-70
2023/10/12 05:39:14;;;;;;;8.63;6.77;;;20.60;74.00;;;;;;5046816;28;20459;-71
2023/10/12 05:41:43;;;;;;;16.77;9.60;;;20.70;74.00;;;;;;5048802;28;20485;-70
2023/10/12 05:44:15;;;;;;;9.87;6.80;;;20.80;74.50;;;;;;5045689;28;20490;-71
2023/10/12 05:46:50;;;;;;;14.47;7.70;;;21.00;75.00;;;;;;5037712;28;20564;-70
2023/10/12 05:49:23;;;;;;;15.03;6.90;;;21.00;74.70;;;;;;5038376;28;20925;-70
2023/10/12 05:51:52;;;;;;;11.83;6.57;;;21.00;74.90;;;;;;5038117;28;21049;-70
2023/10/12 05:54:23;;;;;;;7.90;6.60;;;20.90;74.70;;;;;;5036095;28;20460;-70
2023/10/12 05:56:52;;;;;;;14.20;8.30;;;21.00;75.00;;;;;;5046651;28;20955;-70
2023/10/12 05:59:22;;;;;;;14.80;7.00;;;20.90;74.80;;;;;;5050817;28;20473;-70
2023/10/12 06:01:51;;;;;;;15.50;7.90;;;20.90;74.90;;;;;;5047682;28;20470;-70
2023/10/12 06:04:20;;;;;;;11.27;6.90;;;20.90;75.40;;;;;;5048929;28;20473;-71
2023/10/12 06:06:51;;;;;;;12.47;6.80;;;21.00;75.60;;;;;;5050663;28;20859;-70
2023/10/12 06:09:23;;;;;;;14.70;6.50;;;21.10;74.50;;;;;;5041300;28;20521;-71
2023/10/12 06:11:55;;;;;;;15.10;6.47;;;21.10;74.50;;;;;;5040320;28;20540;-71
2023/10/12 06:14:23;;;;;;;8.30;6.03;;;21.10;75.00;;;;;;5047225;28;20460;-71
2023/10/12 06:16:58;;;;;;;8.23;6.60;;;21.20;74.50;;;;;;5046007;28;20465;-70
2023/10/12 06:19:29;;;;;;;11.83;7.20;;;21.30;74.30;;;;;;5042291;28;20550;-70
2023/10/12 06:21:58;;;;;;;12.83;6.23;;;21.40;74.30;;;;;;5044082;28;20468;-70
2023/10/12 06:24:34;;;;;;;14.03;8.60;;;21.40;74.10;;;;;;5047935;28;20480;-71
2023/10/12 06:27:22;;;;;;;15.57;11.67;;;21.40;74.00;;;;;;5048359;28;20459;-71
2023/10/12 06:29:52;;;;;;;10.10;8.83;;;21.50;74.50;;;;;;5047975;28;20975;-70
2023/10/12 06:32:31;;;;;;;16.47;10.70;;;21.50;73.60;;;;;;5049036;28;20469;-71
2023/10/12 06:35:13;;;;;;;16.53;13.40;;;21.50;73.70;;;;;;5047422;28;20470;-71
2023/10/12 06:37:59;;;;;;;14.10;9.30;;;21.50;72.80;;;;;;5047859;28;20981;-70
2023/10/12 06:40:47;;;;;;;14.73;8.90;;;21.40;73.40;;;;;;5047215;28;20522;-70
2023/10/12 06:46:19;;;;;;;9.27;8.17;;;21.20;74.20;;;;;;5054113;28;20464;-70
2023/10/12 06:48:47;;;;;;;10.33;9.40;;;21.30;74.50;;;;;;5047069;28;20464;-71
2023/10/12 06:51:18;;;;;;;10.43;7.60;;;21.40;73.70;;;;;;5048817;28;20472;-70
2023/10/12 06:53:52;;;;;;;11.80;6.80;;;21.40;73.40;;;;;;5050562;28;20992;-70
2023/10/12 06:56:27;;;;;;;10.67;6.70;;;21.40;72.80;;;;;;5053357;28;20569;-71
2023/10/12 06:59:11;;;;;;;11.33;7.70;;;21.40;73.40;;;;;;5046108;28;20560;-70
2023/10/12 07:01:53;;;;;;;8.83;7.17;;;21.40;73.00;;;;;;5044012;28;20465;-71
2023/10/12 07:04:27;;;;;;;10.17;9.10;;;21.20;73.60;;;;;;5050173;28;20537;-70
2023/10/12 07:06:59;;;;;;;15.77;13.83;;;21.20;73.50;;;;;;5058565;28;20471;-70
2023/10/12 07:09:38;;;;;;;24.03;21.63;;;21.00;73.50;;;;;;5043734;28;20463;-71
2023/10/12 07:12:10;;;;;;;31.90;28.87;;;20.90;74.00;;;;;;5050828;28;20489;-71
2023/10/12 07:14:43;;;;;;;18.80;16.83;;;20.70;73.60;;;;;;5049182;28;20468;-71
2023/10/12 07:17:11;;;;;;;16.13;14.57;;;20.50;74.80;;;;;;5044941;28;20976;-71
2023/10/12 07:19:46;;;;;;;15.73;10.83;;;20.40;74.90;;;;;;5047741;28;20462;-71
2023/10/12 07:22:18;;;;;;;13.87;8.27;;;20.30;75.00;;;;;;5041743;28;20475;-71
2023/10/12 07:24:47;;;;;;;9.20;6.43;;;20.20;75.30;;;;;;5035711;28;20489;-72
2023/10/12 07:27:18;;;;;;;7.07;5.57;;;20.40;78.20;;;;;;5043060;28;20461;-73
2023/10/12 07:29:47;;;;;;;6.10;4.90;;;20.90;77.30;;;;;;5046856;28;20461;-72
2023/10/12 07:32:31;;;;;;;7.07;5.50;;;21.30;76.30;;;;;;5043894;28;20866;-71
2023/10/12 07:35:07;;;;;;;10.57;5.30;;;21.70;75.30;;;;;;5047980;28;20457;-72
2023/10/12 07:37:41;;;;;;;8.00;5.10;;;22.10;74.10;;;;;;5048630;28;20961;-72
2023/10/12 07:40:17;;;;;;;5.77;4.07;;;22.50;73.10;;;;;;5044906;28;20454;-72
2023/10/12 07:42:47;;;;;;;9.57;5.00;;;22.70;72.60;;;;;;5047737;28;20462;-72
2023/10/12 07:45:16;;;;;;;10.97;4.80;;;23.00;72.00;;;;;;5054671;28;20480;-72
2023/10/12 07:47:58;;;;;;;10.63;5.00;;;23.10;71.70;;;;;;5050106;28;20485;-71
2023/10/12 07:50:30;;;;;;;5.43;4.30;;;23.30;71.40;;;;;;5050552;28;20467;-71
2023/10/12 07:53:14;;;;;;;5.00;4.50;;;23.50;71.10;;;;;;5048545;28;20994;-73
2023/10/12 07:55:43;;;;;;;5.40;4.90;;;23.60;70.70;;;;;;5051279;28;20528;-72
2023/10/12 07:58:12;;;;;;;5.80;4.80;;;23.70;70.50;;;;;;5050232;28;21033;-72
2023/10/12 08:00:51;;;;;;;4.97;4.47;;;23.80;70.30;;;;;;5050864;28;20466;-73
2023/10/12 08:03:19;;;;;;;6.43;4.77;;;23.90;70.20;;;;;;5048812;28;20564;-72
2023/10/12 08:08:47;;;;;;;7.43;4.93;;;24.00;70.00;;;;;;4962802;28;20514;-72
2023/10/12 08:11:28;;;;;;;7.97;5.27;;;24.10;69.80;;;;;;5025839;28;20471;-73
2023/10/12 08:14:18;;;;;;;6.13;4.83;;;24.20;69.80;;;;;;5046830;28;20481;-71
2023/10/12 08:17:24;;;;;;;6.63;5.20;;;24.20;69.60;;;;;;5044885;28;20836;-71
2023/10/12 08:19:39;;;;;;;5.93;4.27;;;24.30;69.50;;;;;;5049976;28;20561;-72
2023/10/12 08:22:17;;;;;;;8.90;4.10;;;24.30;69.50;;;;;;5048222;28;20553;-72
2023/10/12 08:24:49;;;;;;;4.67;4.27;;;24.40;69.40;;;;;;5048164;28;20536;-72
2023/10/12 08:27:19;;;;;;;6.90;4.30;;;24.40;69.40;;;;;;5048309;28;20510;-71
2023/10/12 08:30:11;;;;;;;8.40;5.13;;;24.40;69.50;;;;;;5047566;28;20464;-72
2023/10/12 08:32:55;;;;;;;5.07;4.10;;;24.50;69.50;;;;;;5046215;28;20466;-72
2023/10/12 08:35:40;;;;;;;5.60;4.43;;;24.50;69.40;;;;;;5054154;28;20866;-73
2023/10/12 08:38:33;;;;;;;6.13;3.97;;;24.60;69.30;;;;;;5048534;28;20503;-73
2023/10/12 08:41:20;;;;;;;4.40;4.00;;;24.60;69.40;;;;;;5046847;28;20550;-72
2023/10/12 08:43:52;;;;;;;5.10;4.57;;;24.60;69.30;;;;;;5047630;28;20920;-72
2023/10/12 08:46:47;;;;;;;5.03;4.13;;;24.70;69.30;;;;;;5046706;28;20551;-72
2023/10/12 08:52:07;;;;;;;6.20;5.10;;;24.70;69.20;;;;;;5044774;28;20959;-73
2023/10/12 08:54:38;;;;;;;4.47;4.07;;;24.80;69.10;;;;;;5048627;28;20459;-74
2023/10/12 08:57:19;;;;;;;4.00;3.70;;;24.80;69.00;;;;;;5045932;28;20511;-75
2023/10/12 09:00:12;;;;;;;9.77;4.77;;;24.80;69.00;;;;;;5048296;28;20455;-73
2023/10/12 09:02:40;;;;;;;7.43;4.20;;;24.90;68.80;;;;;;5045631;28;20963;-71
2023/10/12 09:05:12;;;;;;;4.90;4.10;;;24.90;68.60;;;;;;5047578;28;20849;-71
2023/10/12 09:07:45;;;;;;;4.20;3.80;;;25.00;68.50;;;;;;5047625;28;20464;-72
2023/10/12 09:10:36;;;;;;;6.17;4.33;;;25.00;68.30;;;;;;5041481;28;20983;-73
2023/10/12 09:13:06;;;;;;;4.33;3.93;;;25.00;68.40;;;;;;5041397;28;20494;-72
2023/10/12 09:15:45;;;;;;;5.80;4.40;;;25.00;68.30;;;;;;5046730;28;20469;-72
2023/10/12 09:18:16;;;;;;;4.27;3.77;;;25.10;68.10;;;;;;5044217;28;20570;-68
2023/10/12 09:20:58;;;;;;;4.03;3.73;;;25.10;67.80;;;;;;5043980;28;20596;-69
2023/10/12 09:23:28;;;;;;;9.10;4.37;;;25.10;67.90;;;;;;5048480;28;20488;-69
2023/10/12 09:26:14;;;;;;;4.63;3.30;;;25.20;68.00;;;;;;5046850;28;20472;-69
2023/10/12 09:29:03;;;;;;;5.27;4.00;;;25.20;68.00;;;;;;5047250;28;20560;-69
2023/10/12 09:31:57;;;;;;;5.70;4.33;;;25.20;67.90;;;;;;5041957;28;20469;-69
2023/10/12 09:34:43;;;;;;;5.77;4.30;;;25.30;67.90;;;;;;5046184;28;20503;-69
2023/10/12 09:37:20;;;;;;;4.80;3.67;;;25.30;67.80;;;;;;5054483;28;20517;-69
2023/10/12 09:39:49;;;;;;;4.20;3.80;;;25.30;67.70;;;;;;5043177;28;21042;-68
2023/10/12 09:42:29;;;;;;;4.57;3.47;;;25.30;67.80;;;;;;5040339;28;20473;-68
2023/10/12 09:45:05;;;;;;;5.07;3.90;;;25.40;67.70;;;;;;5044260;28;20516;-69
2023/10/12 09:47:50;;;;;;;4.93;4.30;;;25.40;67.50;;;;;;5042153;28;20644;-69
2023/10/12 09:50:27;;;;;;;4.03;3.53;;;25.40;67.70;;;;;;5046457;28;20480;-70
2023/10/12 09:52:59;;;;;;;5.63;3.97;;;25.40;67.70;;;;;;5043896;28;20907;-69
2023/10/12 09:55:36;;;;;;;5.43;3.67;;;25.50;67.60;;;;;;5045046;28;20453;-68
2023/10/12 09:58:14;;;;;;;3.90;3.43;;;25.50;67.60;;;;;;5045501;28;20466;-70
2023/10/12 10:01:01;;;;;;;3.90;3.50;;;25.50;67.60;;;;;;5044178;28;20503;-70
2023/10/12 10:03:40;;;;;;;5.63;3.30;;;25.60;67.50;;;;;;5047864;28;20817;-69
2023/10/12 10:06:20;;;;;;;3.40;3.10;;;25.60;67.40;;;;;;5049105;28;20468;-68
2023/10/12 10:09:09;;;;;;;4.20;3.90;;;25.60;67.30;;;;;;5047999;28;20465;-69
2023/10/12 10:11:39;;;;;;;4.03;3.40;;;25.70;67.20;;;;;;5045334;28;20465;-70
2023/10/12 10:14:10;;;;;;;5.17;3.50;;;25.70;67.20;;;;;;5047246;28;20531;-69
2023/10/12 10:16:47;;;;;;;4.33;3.80;;;25.70;67.20;;;;;;5048377;28;20531;-69
2023/10/12 10:19:16;;;;;;;4.33;3.70;;;25.70;67.20;;;;;;5066948;28;20964;-69
2023/10/12 10:21:52;;;;;;;4.33;3.93;;;25.80;67.10;;;;;;5051758;28;20465;-69
2023/10/12 10:24:25;;;;;;;4.20;3.80;;;25.80;67.00;;;;;;5046680;28;20464;-68
2023/10/12 10:26:58;;;;;;;3.60;3.30;;;25.90;66.90;;;;;;5047965;28;20470;-68
2023/10/12 10:29:44;;;;;;;6.17;3.37;;;25.90;66.70;;;;;;5054059;28;20468;-69
2023/10/12 10:32:16;;;;;;;3.23;2.93;;;26.00;66.60;;;;;;5044251;28;20475;-69
2023/10/12 10:34:46;;;;;;;5.70;3.60;;;26.00;66.50;;;;;;5049770;28;20571;-69
2023/10/12 10:37:38;;;;;;;5.43;3.93;;;26.00;66.40;;;;;;5050692;28;21037;-69
2023/10/12 10:40:10;;;;;;;3.53;3.10;;;26.10;66.30;;;;;;5053574;28;20491;-68
2023/10/12 10:42:44;;;;;;;4.73;4.03;;;26.20;66.10;;;;;;5047735;28;20477;-70
2023/10/12 10:45:15;;;;;;;3.77;3.47;;;26.30;65.90;;;;;;5050400;28;20477;-68
2023/10/12 10:47:49;;;;;;;4.57;3.83;;;26.30;65.70;;;;;;5050041;28;20812;-69
2023/10/12 10:50:45;;;;;;;5.23;3.70;;;26.40;65.60;;;;;;5048481;28;20459;-68
2023/10/12 10:53:15;;;;;;;3.77;3.37;;;26.40;65.60;;;;;;5050095;28;20475;-70
2023/10/12 10:55:47;;;;;;;3.83;3.53;;;26.50;65.50;;;;;;5051265;28;20972;-71
2023/10/12 10:58:17;;;;;;;4.40;3.37;;;26.60;65.10;;;;;;5049398;28;20472;-69
2023/10/12 11:00:46;;;;;;;3.77;3.37;;;26.90;64.60;;;;;;5048473;28;20467;-72
2023/10/12 11:03:17;;;;;;;4.40;3.43;;;27.00;64.00;;;;;;5049053;28;20460;-72
2023/10/12 11:05:46;;;;;;;4.13;3.00;;;27.00;64.00;;;;;;5049590;28;20533;-72
2023/10/12 11:08:22;;;;;;;4.00;3.70;;;27.00;63.80;;;;;;5055582;28;21060;-72
2023/10/12 11:13:38;;;;;;;3.43;3.13;;;26.90;63.90;;;;;;5044767;28;20851;-71
2023/10/12 11:16:22;;;;;;;4.20;3.00;;;26.90;64.10;;;;;;5048085;28;21113;-72
2023/10/12 11:18:52;;;;;;;3.20;2.90;;;26.80;64.20;;;;;;5051394;28;20460;-72
2023/10/12 11:21:21;;;;;;;2.77;2.50;;;26.80;64.30;;;;;;5049899;28;20510;-72
2023/10/12 11:23:51;;;;;;;4.80;2.80;;;26.90;64.20;;;;;;5049345;28;20550;-72
2023/10/12 11:26:19;;;;;;;3.20;2.90;;;27.00;63.90;;;;;;5053373;28;20964;-72
2023/10/12 11:29:01;;;;;;;3.40;3.03;;;27.10;63.70;;;;;;5053758;28;20877;-72
2023/10/12 11:31:31;;;;;;;5.40;3.50;;;27.20;63.50;;;;;;5050196;28;20463;-71
2023/10/12 11:34:06;;;;;;;3.53;3.23;;;27.20;63.40;;;;;;5046342;28;20469;-72
2023/10/12 11:36:36;;;;;;;4.00;3.70;;;27.30;63.20;;;;;;5050583;28;20461;-72
2023/10/12 11:39:16;;;;;;;5.13;4.30;;;27.40;63.10;;;;;;5046891;28;20495;-72
2023/10/12 11:42:03;;;;;;;6.87;4.97;;;27.50;62.90;;;;;;5080423;28;21048;-72
2023/10/12 11:44:33;;;;;;;6.10;5.03;;;27.60;62.80;;;;;;5042715;28;20466;-72
2023/10/12 11:47:06;;;;;;;4.17;3.87;;;27.70;62.50;;;;;;5042092;28;20924;-72
2023/10/12 11:49:49;;;;;;;5.73;4.97;;;27.80;62.30;;;;;;5048822;28;20471;-72
2023/10/12 11:52:29;;;;;;;6.60;5.37;;;27.80;62.20;;;;;;5060290;28;20461;-72
2023/10/12 11:55:06;;;;;;;9.67;6.07;;;27.90;62.00;;;;;;5038778;28;20472;-68
2023/10/12 11:57:36;;;;;;;9.23;6.37;;;27.90;62.00;;;;;;5047222;28;21070;-70
2023/10/12 12:00:20;;;;;;;10.37;6.70;;;28.00;61.90;;;;;;5049645;28;20581;-68
2023/10/12 12:02:52;;;;;;;8.30;7.00;;;28.00;61.90;;;;;;5042266;28;20518;-69
2023/10/12 12:05:23;;;;;;;9.27;7.87;;;27.90;62.00;;;;;;5045436;28;20461;-68
2023/10/12 12:07:53;;;;;;;9.10;6.67;;;27.90;62.40;;;;;;5048767;28;20479;-70
2023/10/12 12:10:29;;;;;;;9.97;7.13;;;27.80;62.50;;;;;;5049413;28;20490;-68
2023/10/12 12:12:58;;;;;;;10.10;7.10;;;27.70;62.70;;;;;;5051198;28;20489;-69
2023/10/12 12:15:26;;;;;;;7.30;5.97;;;27.70;62.80;;;;;;5046551;28;20547;-69
2023/10/12 12:17:54;;;;;;;10.73;6.23;;;27.70;62.90;;;;;;5048482;28;20510;-68
2023/10/12 12:20:25;;;;;;;13.70;7.33;;;27.70;63.10;;;;;;5044551;28;20788;-69
2023/10/12 12:22:57;;;;;;;9.80;7.00;;;27.60;63.10;;;;;;5046602;28;20543;-69
2023/10/12 12:25:32;;;;;;;10.13;7.27;;;27.60;63.40;;;;;;5051964;28;20496;-70
2023/10/12 12:28:02;;;;;;;8.83;7.90;;;27.50;63.50;;;;;;5047826;28;20466;-68
2023/10/12 12:30:32;;;;;;;8.07;6.70;;;27.50;63.70;;;;;;5048281;28;20971;-68
2023/10/12 12:33:20;;;;;;;10.43;8.63;;;27.50;63.70;;;;;;5045752;28;20480;-69
2023/10/12 12:35:59;;;;;;;11.13;8.70;;;27.50;63.80;;;;;;5041941;28;20463;-69
2023/10/12 12:38:46;;;;;;;11.50;8.27;;;27.50;63.80;;;;;;5052158;28;20499;-68
2023/10/12 12:41:23;;;;;;;9.70;8.50;;;27.50;63.70;;;;;;5042472;28;20466;-69
2023/10/12 12:43:53;;;;;;;14.10;8.47;;;27.50;63.60;;;;;;5045159;28;21312;-69
2023/10/12 12:46:22;;;;;;;13.80;9.57;;;27.50;63.60;;;;;;5045692;28;20468;-68
2023/10/12 12:48:51;;;;;;;15.17;9.10;;;27.50;63.80;;;;;;5046294;28;20557;-68
2023/10/12 12:51:21;;;;;;;14.77;8.97;;;27.40;63.80;;;;;;5045158;28;20486;-69
2023/10/12 12:53:53;;;;;;;13.90;8.70;;;27.40;63.90;;;;;;5047825;28;20664;-69
2023/10/12 12:56:24;;;;;;;12.53;9.90;;;27.40;63.90;;;;;;5043549;28;20486;-69
2023/10/12 12:58:54;;;;;;;12.47;9.83;;;27.30;64.00;;;;;;5048664;28;20453;-68
2023/10/12 13:01:24;;;;;;;13.90;8.90;;;27.30;64.10;;;;;;5049650;28;20549;-68
2023/10/12 13:03:55;;;;;;;14.73;9.60;;;27.30;64.20;;;;;;5045389;28;20457;-69
2023/10/12 13:06:25;;;;;;;14.57;11.10;;;27.20;64.40;;;;;;5046903;28;20488;-69
2023/10/12 13:08:54;;;;;;;14.40;11.40;;;27.20;64.60;;;;;;5048593;28;20473;-69
2023/10/12 13:11:23;;;;;;;12.87;9.70;;;27.10;64.80;;;;;;5048135;28;20539;-69
2023/10/12 13:13:51;;;;;;;15.20;9.17;;;27.10;64.80;;;;;;5050161;28;20482;-68
2023/10/12 13:16:19;;;;;;;13.10;9.30;;;27.00;64.90;;;;;;5039915;28;20465;-68
2023/10/12 13:18:48;;;;;;;14.17;10.80;;;27.00;64.80;;;;;;5045593;28;20488;-70
2023/10/12 13:21:22;;;;;;;17.40;12.10;;;27.00;64.90;;;;;;5042999;28;20461;-68
2023/10/12 13:23:52;;;;;;;17.93;11.33;;;27.00;65.00;;;;;;5049063;28;20499;-69
2023/10/12 13:26:22;;;;;;;14.10;9.53;;;26.90;65.10;;;;;;5048707;28;20558;-69
2023/10/12 13:28:51;;;;;;;14.23;11.80;;;26.90;65.30;;;;;;5046671;28;20462;-71
2023/10/12 13:31:23;;;;;;;20.37;13.00;;;26.80;65.50;;;;;;5045233;28;20458;-69
2023/10/12 13:33:51;;;;;;;13.53;11.00;;;26.80;65.60;;;;;;5045577;28;20460;-67
2023/10/12 13:36:20;;;;;;;15.70;10.87;;;26.70;65.70;;;;;;5047867;28;20472;-68
2023/10/12 13:38:48;;;;;;;15.60;11.00;;;26.70;65.90;;;;;;5048733;28;20467;-67
2023/10/12 13:41:20;;;;;;;16.90;12.37;;;26.70;65.90;;;;;;5048915;28;20467;-70
2023/10/12 13:43:49;;;;;;;25.60;12.50;;;26.60;66.10;;;;;;5043262;28;20467;-68
2023/10/12 13:46:18;;;;;;;18.33;11.23;;;26.60;66.50;;;;;;5049000;28;20453;-69
2023/10/12 13:48:49;;;;;;;17.80;11.67;;;26.60;66.30;;;;;;5056242;28;20476;-69